sensor_id;sensor_type;location;lat;lon;timestamp;temperature;humidity
19261;DHT22;75986;48.588;9.216;2024-01-30T15:41:17;21.20;95.10
19261;DHT22;75986;48.588;9.216;2024-01-30T15:43:48;21.10;95.40
19261;DHT22;75986;48.588;9.216;2024-01-30T15:46:19;21.20;95.50
19261;DHT22;75986;48.588;9.216;2024-01-30T15:48:52;21.20;95.50
19261;DHT22;75986;48.588;9.216;2024-01-30T15:51:23;21.20;95.50
19261;DHT22;75986;48.588;9.216;2024-01-30T15:53:56;21.20;95.50
19261;DHT22;75986;48.588;9.216;2024-01-30T15:56:27;21.20;95.50
19261;DHT22;75986;48.588;9.216;2024-01-30T15:58:58;21.20;95.40
19261;DHT22;75986;48.588;9.216;2024-01-30T16:01:29;21.20;95.30
19261;DHT22;75986;48.588;9.216;2024-01-30T16:04:02;21.20;95.30
19261;DHT22;75986;48.588;9.216;2024-01-30T16:06:34;21.20;95.30
19261;DHT22;75986;48.588;9.216;2024-01-30T16:09:05;21.20;95.30
19261;DHT22;75986;48.588;9.216;2024-01-30T16:11:36;21.20;95.20
19261;DHT22;75986;48.588;9.216;2024-01-30T16:14:07;21.20;95.10
19261;DHT22;75986;48.588;9.216;2024-01-30T16:16:37;21.20;95.00
19261;DHT22;75986;48.588;9.216;2024-01-30T16:19:11;21.20;94.90
19261;DHT22;75986;48.588;9.216;2024-01-30T16:21:43;21.10;94.90
19261;DHT22;75986;48.588;9.216;2024-01-30T16:24:14;21.10;94.80
19261;DHT22;75986;48.588;9.216;2024-01-30T16:26:45;21.10;94.80
19261;DHT22;75986;48.588;9.216;2024-01-30T16:29:16;21.10;94.80
19261;DHT22;75986;48.588;9.216;2024-01-30T16:31:48;21.10;94.80
19261;DHT22;75986;48.588;9.216;2024-01-30T16:34:21;21.10;94.90
19261;DHT22;75986;48.588;9.216;2024-01-30T16:36:51;21.00;94.90
19261;DHT22;75986;48.588;9.216;2024-01-30T16:39:22;21.00;94.90
19261;DHT22;75986;48.588;9.216;2024-01-30T16:41:52;21.00;95.00
19261;DHT22;75986;48.588;9.216;2024-01-30T16:44:23;21.00;94.90
19261;DHT22;75986;48.588;9.216;2024-01-30T16:46:54;21.00;94.90
19261;DHT22;75986;48.588;9.216;2024-01-30T16:49:27;21.00;95.00
19261;DHT22;75986;48.588;9.216;2024-01-30T16:51:58;21.00;95.10
19261;DHT22;75986;48.588;9.216;2024-01-30T16:54:29;21.00;95.20
19261;DHT22;75986;48.588;9.216;2024-01-30T16:56:59;21.00;95.30
19261;DHT22;75986;48.588;9.216;2024-01-30T16:59:31;21.00;95.40
19261;DHT22;75986;48.588;9.216;2024-01-30T17:02:03;21.00;95.50
19261;DHT22;75986;48.588;9.216;2024-01-30T17:04:38;21.00;95.50
19261;DHT22;75986;48.588;9.216;2024-01-30T17:09:41;21.00;95.40
19261;DHT22;75986;48.588;9.216;2024-01-30T17:12:12;21.00;95.90
19261;DHT22;75986;48.588;9.216;2024-01-30T17:14:45;21.00;96.00
19261;DHT22;75986;48.588;9.216;2024-01-30T17:17:19;21.00;96.10
19261;DHT22;75986;48.588;9.216;2024-01-30T17:19:55;20.90;96.10
19261;DHT22;75986;48.588;9.216;2024-01-30T17:22:28;20.90;96.20
19261;DHT22;75986;48.588;9.216;2024-01-30T17:24:59;20.90;96.30
19261;DHT22;75986;48.588;9.216;2024-01-30T17:27:30;21.00;96.30
19261;DHT22;75986;48.588;9.216;2024-01-30T17:30:03;20.90;96.40
19261;DHT22;75986;48.588;9.216;2024-01-30T17:32:35;20.90;96.50
19261;DHT22;75986;48.588;9.216;2024-01-30T17:35:08;21.00;96.50
19261;DHT22;75986;48.588;9.216;2024-01-30T17:37:43;20.90;96.50
19261;DHT22;75986;48.588;9.216;2024-01-30T17:40:14;20.90;96.50
19261;DHT22;75986;48.588;9.216;2024-01-30T17:42:45;20.90;96.60
19261;DHT22;75986;48.588;9.216;2024-01-30T17:45:16;20.90;96.70
19261;DHT22;75986;48.588;9.216;2024-01-30T17:47:48;20.90;96.80
19261;DHT22;75986;48.588;9.216;2024-01-30T17:50:22;20.90;96.80
19261;DHT22;75986;48.588;9.216;2024-01-30T17:52:55;20.90;96.80
19261;DHT22;75986;48.588;9.216;2024-01-30T17:55:26;20.90;96.90
19261;DHT22;75986;48.588;9.216;2024-01-30T18:00:30;20.90;96.70
19261;DHT22;75986;48.588;9.216;2024-01-30T18:03:00;20.80;97.00
19261;DHT22;75986;48.588;9.216;2024-01-30T18:05:35;20.80;96.90
19261;DHT22;75986;48.588;9.216;2024-01-30T18:08:06;20.80;96.90
19261;DHT22;75986;48.588;9.216;2024-01-30T18:10:37;20.80;96.90
19261;DHT22;75986;48.588;9.216;2024-01-30T18:13:08;20.80;96.90
19261;DHT22;75986;48.588;9.216;2024-01-30T18:15:41;20.80;96.90
19261;DHT22;75986;48.588;9.216;2024-01-30T18:18:12;20.80;96.90
19261;DHT22;75986;48.588;9.216;2024-01-30T18:20:46;20.80;96.80
19261;DHT22;75986;48.588;9.216;2024-01-30T18:25:48;20.80;96.50
19261;DHT22;75986;48.588;9.216;2024-01-30T18:28:27;20.80;96.90
19261;DHT22;75986;48.588;9.216;2024-01-30T18:30:58;20.80;96.80
19261;DHT22;75986;48.588;9.216;2024-01-30T18:33:28;20.80;96.80
19261;DHT22;75986;48.588;9.216;2024-01-30T18:36:02;20.80;96.80
19261;DHT22;75986;48.588;9.216;2024-01-30T18:38:32;20.80;96.80
19261;DHT22;75986;48.588;9.216;2024-01-30T18:41:03;20.70;96.70
19261;DHT22;75986;48.588;9.216;2024-01-30T18:43:33;20.80;96.80
19261;DHT22;75986;48.588;9.216;2024-01-30T18:46:04;20.80;96.80
19261;DHT22;75986;48.588;9.216;2024-01-30T18:48:35;20.70;96.70
19261;DHT22;75986;48.588;9.216;2024-01-30T18:51:16;20.70;96.70
19261;DHT22;75986;48.588;9.216;2024-01-30T18:53:47;20.70;96.70
19261;DHT22;75986;48.588;9.216;2024-01-30T18:56:17;20.70;96.80
19261;DHT22;75986;48.588;9.216;2024-01-30T18:58:48;20.70;96.70
19261;DHT22;75986;48.588;9.216;2024-01-30T19:01:18;20.70;96.70
19261;DHT22;75986;48.588;9.216;2024-01-30T19:03:49;20.70;96.70
19261;DHT22;75986;48.588;9.216;2024-01-30T19:06:22;20.70;96.60
19261;DHT22;75986;48.588;9.216;2024-01-30T19:08:52;20.70;96.60
19261;DHT22;75986;48.588;9.216;2024-01-30T19:11:23;20.70;96.60
19261;DHT22;75986;48.588;9.216;2024-01-30T19:13:53;20.70;96.60
19261;DHT22;75986;48.588;9.216;2024-01-30T19:16:23;20.70;96.60
19261;DHT22;75986;48.588;9.216;2024-01-30T19:18:54;20.70;96.60
19261;DHT22;75986;48.588;9.216;2024-01-30T19:21:27;20.70;96.60
19261;DHT22;75986;48.588;9.216;2024-01-30T19:23:58;20.70;96.70
19261;DHT22;75986;48.588;9.216;2024-01-30T19:26:28;20.70;96.70
19261;DHT22;75986;48.588;9.216;2024-01-30T19:28:59;20.70;96.70
19261;DHT22;75986;48.588;9.216;2024-01-30T19:31:29;20.70;96.70
19261;DHT22;75986;48.588;9.216;2024-01-30T19:34:00;20.70;96.70
19261;DHT22;75986;48.588;9.216;2024-01-30T19:36:34;20.70;96.80
19261;DHT22;75986;48.588;9.216;2024-01-30T19:39:06;20.70;96.80
19261;DHT22;75986;48.588;9.216;2024-01-30T19:41:40;20.70;96.80
19261;DHT22;75986;48.588;9.216;2024-01-30T19:44:11;20.60;96.80
19261;DHT22;75986;48.588;9.216;2024-01-30T19:49:12;20.70;96.60
19261;DHT22;75986;48.588;9.216;2024-01-30T19:51:46;20.60;96.90
19261;DHT22;75986;48.588;9.216;2024-01-30T19:54:16;20.70;97.00
19261;DHT22;75986;48.588;9.216;2024-01-30T19:56:49;20.60;97.00
19261;DHT22;75986;48.588;9.216;2024-01-30T19:59:19;20.60;97.30
19261;DHT22;75986;48.588;9.216;2024-01-30T20:01:49;20.60;97.00
19261;DHT22;75986;48.588;9.216;2024-01-30T20:04:20;20.60;97.00
19261;DHT22;75986;48.588;9.216;2024-01-30T20:06:53;20.60;97.00
19261;DHT22;75986;48.588;9.216;2024-01-30T20:09:23;20.70;97.10
19261;DHT22;75986;48.588;9.216;2024-01-30T20:11:54;20.60;97.00
19261;DHT22;75986;48.588;9.216;2024-01-30T20:14:24;20.60;97.10
19261;DHT22;75986;48.588;9.216;2024-01-30T20:16:54;20.60;97.10
19261;DHT22;75986;48.588;9.216;2024-01-30T20:19:24;20.60;97.10
19261;DHT22;75986;48.588;9.216;2024-01-30T20:21:57;20.60;97.20
19261;DHT22;75986;48.588;9.216;2024-01-30T20:24:28;20.60;97.20
19261;DHT22;75986;48.588;9.216;2024-01-30T20:26:58;20.60;97.20
19261;DHT22;75986;48.588;9.216;2024-01-30T20:29:28;20.60;97.20
19261;DHT22;75986;48.588;9.216;2024-01-30T20:31:59;20.60;97.20
19261;DHT22;75986;48.588;9.216;2024-01-30T20:34:29;20.60;97.20
19261;DHT22;75986;48.588;9.216;2024-01-30T20:37:03;20.60;97.20
19261;DHT22;75986;48.588;9.216;2024-01-30T20:39:34;20.60;97.30
19261;DHT22;75986;48.588;9.216;2024-01-30T20:42:05;20.60;97.30
19261;DHT22;75986;48.588;9.216;2024-01-30T20:44:37;20.60;97.30
19261;DHT22;75986;48.588;9.216;2024-01-30T20:47:07;20.50;97.40
19261;DHT22;75986;48.588;9.216;2024-01-30T20:49:38;20.50;97.30
19261;DHT22;75986;48.588;9.216;2024-01-30T20:52:11;20.50;97.40
19261;DHT22;75986;48.588;9.216;2024-01-30T20:54:42;20.50;97.40
19261;DHT22;75986;48.588;9.216;2024-01-30T20:57:12;20.50;97.40
19261;DHT22;75986;48.588;9.216;2024-01-30T20:59:42;20.50;97.40
19261;DHT22;75986;48.588;9.216;2024-01-30T21:02:12;20.50;97.40
19261;DHT22;75986;48.588;9.216;2024-01-30T21:04:43;20.50;97.50
19261;DHT22;75986;48.588;9.216;2024-01-30T21:07:16;20.50;97.50
19261;DHT22;75986;48.588;9.216;2024-01-30T21:09:50;20.50;97.50
19261;DHT22;75986;48.588;9.216;2024-01-30T21:12:20;20.50;97.50
19261;DHT22;75986;48.588;9.216;2024-01-30T21:14:50;20.50;97.50
19261;DHT22;75986;48.588;9.216;2024-01-30T21:17:21;20.50;97.50
19261;DHT22;75986;48.588;9.216;2024-01-30T21:19:51;20.50;97.60
19261;DHT22;75986;48.588;9.216;2024-01-30T21:22:24;20.50;97.60
19261;DHT22;75986;48.588;9.216;2024-01-30T21:24:54;20.50;97.70
19261;DHT22;75986;48.588;9.216;2024-01-30T21:27:26;20.50;97.60
19261;DHT22;75986;48.588;9.216;2024-01-30T21:29:56;20.50;97.60
19261;DHT22;75986;48.588;9.216;2024-01-30T21:32:27;20.50;97.60
19261;DHT22;75986;48.588;9.216;2024-01-30T21:34:57;20.40;97.60
19261;DHT22;75986;48.588;9.216;2024-01-30T21:37:31;20.40;97.60
19261;DHT22;75986;48.588;9.216;2024-01-30T21:40:03;20.50;97.70
19261;DHT22;75986;48.588;9.216;2024-01-30T21:42:34;20.40;97.60
19261;DHT22;75986;48.588;9.216;2024-01-30T21:45:06;20.40;97.70
19261;DHT22;75986;48.588;9.216;2024-01-30T21:47:37;20.40;97.70
19261;DHT22;75986;48.588;9.216;2024-01-30T21:50:08;20.40;97.60
19261;DHT22;75986;48.588;9.216;2024-01-30T21:52:41;20.40;97.70
19261;DHT22;75986;48.588;9.216;2024-01-30T21:55:13;20.40;97.70
19261;DHT22;75986;48.588;9.216;2024-01-30T21:57:43;20.40;97.60
19261;DHT22;75986;48.588;9.216;2024-01-30T22:00:14;20.40;97.60
19261;DHT22;75986;48.588;9.216;2024-01-30T22:02:45;20.40;97.60
19261;DHT22;75986;48.588;9.216;2024-01-30T22:05:15;20.40;97.60
19261;DHT22;75986;48.588;9.216;2024-01-30T22:07:48;20.40;97.60
19261;DHT22;75986;48.588;9.216;2024-01-30T22:10:18;20.40;97.60
19261;DHT22;75986;48.588;9.216;2024-01-30T22:12:49;20.40;97.60
19261;DHT22;75986;48.588;9.216;2024-01-30T22:15:19;20.40;97.60
19261;DHT22;75986;48.588;9.216;2024-01-30T22:17:49;20.40;97.60
19261;DHT22;75986;48.588;9.216;2024-01-30T22:20:20;20.40;97.60
19261;DHT22;75986;48.588;9.216;2024-01-30T22:22:52;20.40;97.60
19261;DHT22;75986;48.588;9.216;2024-01-30T22:25:23;20.40;97.60
19261;DHT22;75986;48.588;9.216;2024-01-30T22:27:53;20.40;97.60
19261;DHT22;75986;48.588;9.216;2024-01-30T22:30:24;20.30;97.60
19261;DHT22;75986;48.588;9.216;2024-01-30T22:32:54;20.30;97.60
19261;DHT22;75986;48.588;9.216;2024-01-30T22:35:24;20.30;97.60
19261;DHT22;75986;48.588;9.216;2024-01-30T22:37:57;20.30;97.70
19261;DHT22;75986;48.588;9.216;2024-01-30T22:40:27;20.40;97.70
19261;DHT22;75986;48.588;9.216;2024-01-30T22:42:57;20.30;97.60
19261;DHT22;75986;48.588;9.216;2024-01-30T22:45:28;20.30;97.60
19261;DHT22;75986;48.588;9.216;2024-01-30T22:47:58;20.30;97.60
19261;DHT22;75986;48.588;9.216;2024-01-30T22:50:28;20.30;97.60
19261;DHT22;75986;48.588;9.216;2024-01-30T22:53:01;20.30;97.60
19261;DHT22;75986;48.588;9.216;2024-01-30T22:55:32;20.30;97.60
19261;DHT22;75986;48.588;9.216;2024-01-30T22:58:02;20.30;97.60
19261;DHT22;75986;48.588;9.216;2024-01-30T23:00:33;20.30;97.60
19261;DHT22;75986;48.588;9.216;2024-01-30T23:03:04;20.30;97.70
19261;DHT22;75986;48.588;9.216;2024-01-30T23:05:38;20.30;97.70
19261;DHT22;75986;48.588;9.216;2024-01-30T23:08:11;20.30;97.70
19261;DHT22;75986;48.588;9.216;2024-01-30T23:10:42;20.30;97.60
19261;DHT22;75986;48.588;9.216;2024-01-30T23:13:12;20.30;97.60
19261;DHT22;75986;48.588;9.216;2024-01-30T23:15:42;20.30;97.60
19261;DHT22;75986;48.588;9.216;2024-01-30T23:18:13;20.30;97.60
19261;DHT22;75986;48.588;9.216;2024-01-30T23:20:43;20.30;97.70
19261;DHT22;75986;48.588;9.216;2024-01-30T23:25:47;20.20;97.30
19261;DHT22;75986;48.588;9.216;2024-01-30T23:28:17;20.30;97.70
19261;DHT22;75986;48.588;9.216;2024-01-30T23:30:47;20.20;97.60
19261;DHT22;75986;48.588;9.216;2024-01-30T23:33:21;20.20;97.60
19261;DHT22;75986;48.588;9.216;2024-01-30T23:35:51;20.30;97.70
19261;DHT22;75986;48.588;9.216;2024-01-30T23:38:24;20.20;97.70
19261;DHT22;75986;48.588;9.216;2024-01-30T23:40:55;20.20;97.60
19261;DHT22;75986;48.588;9.216;2024-01-30T23:43:26;20.30;97.60
19261;DHT22;75986;48.588;9.216;2024-01-30T23:45:56;20.20;97.60
19261;DHT22;75986;48.588;9.216;2024-01-30T23:48:27;20.20;97.60
19261;DHT22;75986;48.588;9.216;2024-01-30T23:50:57;20.20;97.60
19261;DHT22;75986;48.588;9.216;2024-01-30T23:53:30;20.20;97.60
19261;DHT22;75986;48.588;9.216;2024-01-30T23:56:01;20.20;98.00
19261;DHT22;75986;48.588;9.216;2024-01-30T23:58:32;20.20;98.00
